createdAt,value
2023-03-17T00:00:55.810Z,43.73
2023-03-17T00:03:45.587Z,43.92
2023-03-17T00:06:33.819Z,43.89
2023-03-17T00:09:20.289Z,43.97
2023-03-17T00:12:10.842Z,43.88
2023-03-17T00:14:56.322Z,43.88
2023-03-17T00:17:42.409Z,44.07
2023-03-17T00:20:33.084Z,43.98
2023-03-17T00:23:21.616Z,43.98
2023-03-17T00:26:07.340Z,44.13
2023-03-17T00:28:54.780Z,44.20
2023-03-17T00:31:40.307Z,44.15
2023-03-17T00:34:25.788Z,44.06
2023-03-17T00:37:12.835Z,44.13
2023-03-17T00:39:58.385Z,44.13
2023-03-17T00:42:44.194Z,44.13
2023-03-17T00:45:29.548Z,44.16
2023-03-17T00:48:19.714Z,44.15
2023-03-17T00:51:05.328Z,44.16
2023-03-17T00:53:50.754Z,44.23
2023-03-17T00:56:37.469Z,44.30
2023-03-17T00:59:33.910Z,44.32
2023-03-17T01:02:19.564Z,44.25
2023-03-17T01:05:07.150Z,44.21
2023-03-17T01:07:55.069Z,44.15
2023-03-17T01:10:40.174Z,44.23
2023-03-17T01:13:25.557Z,44.21
2023-03-17T01:16:12.418Z,44.26
2023-03-17T01:18:58.494Z,44.33
2023-03-17T01:21:43.913Z,44.11
2023-03-17T01:24:29.213Z,44.16
2023-03-17T01:27:14.344Z,44.07
2023-03-17T01:30:00.267Z,44.10
2023-03-17T01:32:45.802Z,44.04
2023-03-17T01:35:31.551Z,44.03
2023-03-17T01:38:17.545Z,44.16
2023-03-17T01:41:03.519Z,44.07
2023-03-17T01:43:49.876Z,44.16
2023-03-17T01:46:36.648Z,44.25
2023-03-17T01:49:30.864Z,44.09
2023-03-17T01:52:20.760Z,44.10
2023-03-17T01:55:12.146Z,44.25
2023-03-17T01:57:57.691Z,44.20
2023-03-17T02:00:43.990Z,44.24
2023-03-17T02:03:29.861Z,44.32
2023-03-17T02:06:15.227Z,44.37
2023-03-17T02:09:01.586Z,44.39
2023-03-17T02:11:46.841Z,44.40
2023-03-17T02:14:32.134Z,44.36
2023-03-17T02:17:22.957Z,44.38
2023-03-17T02:20:17.557Z,44.34
2023-03-17T02:23:04.317Z,44.36
2023-03-17T02:25:53.659Z,44.20
2023-03-17T02:28:39.644Z,44.36
2023-03-17T02:31:26.792Z,44.53
2023-03-17T02:34:12.440Z,44.31
2023-03-17T02:36:58.601Z,44.23
2023-03-17T02:39:44.815Z,44.13
2023-03-17T02:42:30.013Z,44.26
2023-03-17T02:45:18.036Z,44.28
2023-03-17T02:48:05.437Z,44.15
2023-03-17T02:50:50.832Z,44.20
2023-03-17T02:53:36.656Z,44.18
2023-03-17T02:56:21.939Z,44.23
2023-03-17T02:59:07.522Z,44.40
2023-03-17T03:01:53.336Z,44.24
2023-03-17T03:04:38.936Z,44.23
2023-03-17T03:07:24.196Z,44.32
2023-03-17T03:10:10.470Z,44.37
2023-03-17T03:12:55.962Z,44.31
2023-03-17T03:15:43.312Z,44.41
2023-03-17T03:18:28.896Z,44.35
2023-03-17T03:21:14.359Z,44.35
2023-03-17T03:23:59.877Z,44.48
2023-03-17T03:26:45.030Z,44.27
2023-03-17T03:29:30.704Z,44.47
2023-03-17T03:32:16.320Z,44.33
2023-03-17T03:35:01.869Z,44.42
2023-03-17T03:37:47.230Z,44.23
2023-03-17T03:40:32.838Z,44.41
2023-03-17T03:43:23.415Z,44.30
2023-03-17T03:46:09.221Z,44.48
2023-03-17T03:48:55.220Z,44.43
2023-03-17T03:51:40.885Z,44.54
2023-03-17T03:54:26.183Z,44.72
2023-03-17T03:57:11.592Z,44.95
2023-03-17T03:59:57.295Z,45.17
2023-03-17T04:02:45.025Z,45.38
2023-03-17T04:05:30.415Z,45.42
2023-03-17T04:08:16.470Z,45.55
2023-03-17T04:11:01.904Z,45.56
2023-03-17T04:13:47.121Z,45.61
2023-03-17T04:16:33.057Z,45.64
2023-03-17T04:19:18.275Z,45.64
2023-03-17T04:22:04.571Z,45.73
2023-03-17T04:24:49.891Z,45.68
2023-03-17T04:27:35.199Z,45.63
2023-03-17T04:30:20.654Z,45.68
2023-03-17T04:33:06.037Z,45.97
2023-03-17T04:35:51.313Z,45.89
2023-03-17T04:38:36.509Z,45.82
2023-03-17T04:41:21.949Z,45.69
2023-03-17T04:44:08.127Z,45.84
2023-03-17T04:46:53.613Z,45.84
2023-03-17T04:49:39.090Z,47.81
2023-03-17T04:52:24.344Z,47.16
2023-03-17T04:55:10.105Z,47.45
2023-03-17T04:57:55.390Z,47.79
2023-03-17T05:00:41.155Z,47.40
2023-03-17T05:03:28.546Z,47.44
2023-03-17T05:06:14.298Z,47.73
2023-03-17T05:09:01.703Z,47.43
2023-03-17T05:11:47.683Z,47.27
2023-03-17T05:14:33.171Z,46.88
2023-03-17T05:17:18.700Z,46.54
2023-03-17T05:20:04.672Z,47.68
2023-03-17T05:22:50.156Z,46.76
2023-03-17T05:25:36.888Z,46.88
2023-03-17T05:28:24.120Z,46.86
2023-03-17T05:31:11.037Z,46.59
2023-03-17T05:33:56.897Z,46.61
2023-03-17T05:36:43.735Z,46.66
2023-03-17T05:39:29.574Z,46.28
2023-03-17T05:42:15.631Z,45.83
2023-03-17T05:45:00.970Z,45.75
2023-03-17T05:47:46.547Z,45.46
2023-03-17T05:50:32.616Z,45.52
2023-03-17T05:53:18.861Z,45.62
2023-03-17T05:56:05.389Z,45.98
2023-03-17T05:58:50.572Z,46.07
2023-03-17T06:01:36.635Z,46.00
2023-03-17T06:04:21.992Z,46.06
2023-03-17T06:07:07.462Z,45.90
2023-03-17T06:09:53.097Z,45.61
2023-03-17T06:12:38.204Z,45.29
2023-03-17T06:15:23.587Z,45.18
2023-03-17T06:18:09.025Z,44.98
2023-03-17T06:20:55.173Z,44.72
2023-03-17T06:23:40.999Z,44.88
2023-03-17T06:26:27.242Z,44.61
2023-03-17T06:29:12.644Z,44.79
2023-03-17T06:32:01.466Z,44.87
2023-03-17T06:34:51.854Z,44.94
2023-03-17T06:37:37.282Z,44.90
2023-03-17T06:40:22.815Z,44.66
2023-03-17T06:43:08.043Z,44.89
2023-03-17T06:45:53.382Z,44.93
2023-03-17T06:48:39.200Z,44.75
2023-03-17T06:51:25.078Z,44.93
2023-03-17T06:54:10.332Z,44.92
2023-03-17T06:56:56.033Z,45.01
2023-03-17T06:59:41.757Z,45.02
2023-03-17T07:02:27.430Z,45.01
2023-03-17T07:05:13.988Z,44.98
2023-03-17T07:07:59.695Z,44.97
2023-03-17T07:10:45.858Z,44.98
2023-03-17T07:13:35.523Z,44.89
2023-03-17T07:16:21.264Z,44.95
2023-03-17T07:19:07.405Z,45.04
2023-03-17T07:21:53.085Z,45.01
2023-03-17T07:24:38.521Z,44.89
2023-03-17T07:27:25.426Z,44.82
2023-03-17T07:30:12.909Z,44.76
2023-03-17T07:32:58.607Z,44.71
2023-03-17T07:35:48.657Z,44.80
2023-03-17T07:38:34.181Z,44.53
2023-03-17T07:41:19.932Z,44.76
2023-03-17T07:44:05.309Z,44.67
2023-03-17T07:46:51.503Z,44.76
2023-03-17T07:49:41.702Z,44.61
2023-03-17T07:52:27.336Z,44.67
2023-03-17T07:55:12.671Z,44.72
2023-03-17T07:57:58.240Z,44.62
2023-03-17T08:00:43.596Z,44.62
2023-03-17T08:03:30.603Z,44.62
2023-03-17T08:06:16.083Z,44.68
2023-03-17T08:09:01.633Z,44.61
2023-03-17T08:11:46.880Z,44.56
2023-03-17T08:14:32.179Z,44.63
2023-03-17T08:17:17.702Z,44.64
2023-03-17T08:20:04.872Z,44.73
2023-03-17T08:22:50.371Z,44.78
2023-03-17T08:25:35.491Z,44.78
2023-03-17T08:28:21.080Z,44.73
2023-03-17T08:31:17.099Z,44.77
2023-03-17T08:34:03.167Z,44.92
2023-03-17T08:36:48.329Z,44.77
2023-03-17T08:39:33.854Z,44.68
2023-03-17T08:42:19.055Z,44.75
2023-03-17T08:45:07.441Z,44.74
2023-03-17T08:47:53.434Z,44.67
2023-03-17T08:50:38.973Z,44.54
2023-03-17T08:53:25.119Z,44.48
2023-03-17T08:56:10.969Z,44.48
2023-03-17T08:58:57.052Z,44.50
2023-03-17T09:01:44.241Z,44.60
2023-03-17T09:04:29.384Z,44.48
2023-03-17T09:07:15.170Z,44.49
2023-03-17T09:10:00.749Z,44.39
2023-03-17T09:12:46.235Z,44.30
2023-03-17T09:15:33.778Z,44.60
2023-03-17T09:18:21.933Z,44.45
2023-03-17T09:21:08.806Z,44.37
2023-03-17T09:23:54.424Z,44.46
2023-03-17T09:26:39.890Z,44.45
2023-03-17T09:29:25.088Z,44.55
2023-03-17T09:32:10.419Z,44.39
2023-03-17T09:34:56.258Z,44.42
2023-03-17T09:37:41.909Z,44.43
2023-03-17T09:40:33.243Z,44.51
2023-03-17T09:43:21.647Z,44.46
2023-03-17T09:46:36.404Z,44.39
2023-03-17T09:49:27.530Z,44.44
2023-03-17T09:52:16.027Z,44.54
2023-03-17T09:55:05.229Z,44.51
2023-03-17T09:57:52.239Z,44.46
2023-03-17T10:00:37.734Z,44.41
2023-03-17T10:03:26.192Z,44.41
2023-03-17T10:06:22.646Z,44.42
2023-03-17T10:09:37.417Z,44.20
2023-03-17T10:12:34.357Z,44.31
2023-03-17T10:15:38.424Z,44.33
2023-03-17T10:18:29.748Z,44.27
2023-03-17T10:21:20.384Z,44.26
2023-03-17T10:24:07.444Z,44.26
2023-03-17T10:26:57.899Z,44.16
2023-03-17T10:29:43.353Z,44.40
2023-03-17T10:32:32.030Z,44.20
2023-03-17T10:35:18.638Z,44.36
2023-03-17T10:38:19.335Z,44.28
2023-03-17T10:41:13.519Z,44.29
2023-03-17T10:43:59.500Z,44.34
2023-03-17T10:46:54.271Z,44.27
2023-03-17T10:49:39.743Z,44.28
2023-03-17T10:52:28.649Z,44.31
2023-03-17T10:55:18.163Z,44.31
2023-03-17T10:58:17.074Z,44.25
2023-03-17T11:01:39.688Z,44.29
2023-03-17T11:04:51.043Z,44.13
2023-03-17T11:07:38.706Z,44.23
2023-03-17T11:10:27.338Z,44.33
2023-03-17T11:13:18.578Z,44.27
2023-03-17T11:16:22.069Z,44.26
2023-03-17T11:19:15.424Z,44.22
2023-03-17T11:22:19.728Z,44.17
2023-03-17T11:25:16.230Z,44.17
2023-03-17T11:28:18.909Z,44.08
2023-03-17T11:31:24.536Z,44.10
2023-03-17T11:34:25.741Z,44.03
2023-03-17T11:37:51.441Z,44.16
2023-03-17T11:40:59.262Z,44.04
2023-03-17T11:43:56.591Z,44.14
2023-03-17T11:47:20.482Z,44.11
2023-03-17T11:50:12.229Z,44.17
2023-03-17T11:53:19.593Z,44.15
2023-03-17T11:56:16.960Z,44.24
2023-03-17T11:59:06.637Z,44.27
2023-03-17T12:02:01.520Z,44.27
2023-03-17T12:04:55.705Z,44.13
2023-03-17T12:07:47.806Z,44.38
2023-03-17T12:10:51.717Z,44.32
2023-03-17T12:14:17.604Z,44.36
2023-03-17T12:17:16.183Z,44.32
2023-03-17T12:20:20.017Z,44.61
2023-03-17T12:23:16.153Z,44.45
2023-03-17T12:26:37.775Z,44.50
2023-03-17T12:29:30.375Z,44.53
2023-03-17T12:32:41.817Z,44.48
2023-03-17T12:35:27.860Z,44.55
2023-03-17T12:38:24.542Z,44.49
2023-03-17T12:42:12.003Z,44.45
2023-03-17T12:45:15.774Z,44.36
2023-03-17T12:48:10.074Z,44.40
2023-03-17T12:51:37.246Z,44.40
2023-03-17T12:54:32.037Z,44.43
2023-03-17T12:57:20.693Z,44.43
2023-03-17T13:00:29.669Z,44.42
2023-03-17T13:03:25.244Z,44.35
2023-03-17T13:06:19.393Z,44.48
2023-03-17T13:09:32.688Z,44.43
2023-03-17T13:12:39.318Z,44.43
2023-03-17T13:15:34.044Z,44.42
2023-03-17T13:18:19.185Z,44.34
2023-03-17T13:21:04.907Z,44.38
2023-03-17T13:23:59.269Z,44.28
2023-03-17T13:26:50.467Z,44.27
2023-03-17T13:29:35.796Z,44.20
2023-03-17T13:32:24.678Z,44.36
2023-03-17T13:35:19.086Z,44.39
2023-03-17T13:38:32.853Z,44.44
2023-03-17T13:41:32.021Z,44.31
2023-03-17T13:44:47.669Z,44.33
2023-03-17T13:47:36.089Z,44.25
2023-03-17T13:50:31.236Z,44.39
2023-03-17T13:53:17.100Z,44.26
2023-03-17T13:56:12.190Z,44.37
2023-03-17T13:59:06.572Z,44.23
2023-03-17T14:02:04.557Z,45.30
2023-03-17T14:04:57.510Z,46.07
2023-03-17T14:07:56.707Z,46.34
2023-03-17T14:10:45.933Z,45.96
2023-03-17T14:13:49.648Z,43.95
2023-03-17T14:16:42.462Z,45.33
2023-03-17T14:19:29.609Z,45.22
2023-03-17T14:22:24.608Z,45.62
2023-03-17T14:25:22.251Z,45.48
2023-03-17T14:28:12.729Z,45.59
2023-03-17T14:31:06.753Z,45.35
2023-03-17T14:33:55.678Z,44.86
2023-03-17T14:36:41.146Z,44.94
2023-03-17T14:39:26.949Z,45.00
2023-03-17T14:42:12.369Z,45.14
2023-03-17T14:45:08.213Z,45.02
2023-03-17T14:47:53.947Z,45.08
2023-03-17T14:50:52.150Z,45.14
2023-03-17T14:53:43.449Z,45.16
2023-03-17T14:56:52.213Z,44.59
2023-03-17T14:59:40.598Z,44.86
2023-03-17T15:02:35.049Z,45.44
2023-03-17T15:05:31.658Z,45.00
2023-03-17T15:08:35.037Z,45.14
2023-03-17T15:11:27.635Z,45.41
2023-03-17T15:14:21.651Z,45.02
2023-03-17T15:17:17.017Z,43.78
2023-03-17T15:20:13.693Z,43.96
2023-03-17T15:23:03.977Z,44.27
2023-03-17T15:25:55.789Z,44.39
2023-03-17T15:28:41.348Z,44.61
2023-03-17T15:31:30.156Z,44.80
2023-03-17T15:34:15.686Z,44.79
2023-03-17T15:37:00.977Z,44.55
2023-03-17T15:39:48.143Z,44.05
2023-03-17T15:42:37.145Z,43.59
2023-03-17T15:45:22.253Z,43.74
2023-03-17T15:48:17.421Z,43.97
2023-03-17T15:51:04.561Z,44.00
2023-03-17T15:53:50.417Z,43.95
2023-03-17T15:56:35.726Z,43.89
2023-03-17T15:59:20.794Z,43.66
2023-03-17T16:02:31.737Z,43.64
2023-03-17T16:05:20.678Z,43.39
2023-03-17T16:08:05.947Z,43.05
2023-03-17T16:10:52.257Z,43.10
2023-03-17T16:13:37.503Z,43.79
2023-03-17T16:16:45.650Z,43.52
2023-03-17T16:19:31.596Z,43.53
2023-03-17T16:22:41.870Z,43.65
2023-03-17T16:25:29.643Z,43.46
2023-03-17T16:28:16.372Z,43.35
2023-03-17T16:31:02.147Z,43.46
2023-03-17T16:33:48.622Z,43.29
2023-03-17T16:36:33.902Z,43.25
2023-03-17T16:39:23.032Z,43.43
2023-03-17T16:42:28.252Z,43.26
2023-03-17T16:45:27.054Z,43.23
2023-03-17T16:48:14.711Z,43.26
2023-03-17T16:51:01.086Z,43.47
2023-03-17T16:53:47.115Z,43.42
2023-03-17T16:56:32.705Z,43.51
2023-03-17T16:59:21.804Z,43.44
2023-03-17T17:02:15.891Z,43.48
2023-03-17T17:05:04.613Z,43.59
2023-03-17T17:07:50.807Z,43.50
2023-03-17T17:10:36.984Z,43.50
2023-03-17T17:13:22.259Z,43.61
2023-03-17T17:16:11.799Z,43.57
2023-03-17T17:18:59.023Z,42.74
2023-03-17T17:21:45.012Z,42.19
2023-03-17T17:24:31.156Z,42.66
2023-03-17T17:27:16.548Z,42.82
2023-03-17T17:30:01.891Z,43.47
2023-03-17T17:32:47.207Z,43.52
2023-03-17T17:35:33.353Z,43.90
2023-03-17T17:38:27.650Z,44.29
2023-03-17T17:41:14.167Z,44.35
2023-03-17T17:43:59.363Z,44.36
2023-03-17T17:46:44.826Z,44.79
2023-03-17T17:49:30.318Z,44.99
2023-03-17T17:53:12.800Z,45.21
2023-03-17T17:55:59.080Z,45.23
2023-03-17T17:58:44.933Z,45.29
2023-03-17T18:01:30.576Z,45.37
2023-03-17T18:04:16.425Z,45.24
2023-03-17T18:07:02.560Z,45.25
2023-03-17T18:09:48.064Z,45.19
2023-03-17T18:12:33.490Z,45.13
2023-03-17T18:15:18.990Z,45.18
2023-03-17T18:18:05.413Z,45.20
2023-03-17T18:20:51.073Z,46.65
2023-03-17T18:23:36.733Z,46.74
2023-03-17T18:26:29.327Z,47.80
2023-03-17T18:29:14.577Z,47.68
2023-03-17T18:31:59.940Z,47.84
2023-03-17T18:34:46.672Z,47.70
2023-03-17T18:37:32.628Z,47.88
2023-03-17T18:40:32.327Z,48.08
2023-03-17T18:43:19.258Z,48.50
2023-03-17T18:46:05.774Z,48.18
2023-03-17T18:48:59.770Z,48.43
2023-03-17T18:51:46.329Z,48.51
2023-03-17T18:54:32.911Z,48.22
2023-03-17T18:57:19.128Z,48.11
2023-03-17T19:00:06.432Z,47.95
2023-03-17T19:02:54.496Z,47.66
2023-03-17T19:05:41.055Z,47.68
2023-03-17T19:08:26.740Z,47.32
2023-03-17T19:11:14.422Z,46.46
2023-03-17T19:14:00.668Z,46.01
2023-03-17T19:16:47.532Z,45.97
2023-03-17T19:19:35.707Z,45.73
2023-03-17T19:22:21.695Z,45.40
2023-03-17T19:25:08.794Z,45.24
2023-03-17T19:27:54.352Z,45.15
2023-03-17T19:30:40.020Z,45.16
2023-03-17T19:33:25.704Z,44.93
2023-03-17T19:36:13.745Z,44.93
2023-03-17T19:38:59.555Z,44.78
2023-03-17T19:41:48.094Z,44.81
2023-03-17T19:44:33.912Z,44.80
2023-03-17T19:47:21.468Z,44.91
2023-03-17T19:50:13.578Z,45.00
2023-03-17T19:53:02.272Z,44.98
2023-03-17T19:55:48.617Z,45.02
2023-03-17T19:58:38.001Z,44.99
2023-03-17T20:01:25.000Z,44.91
2023-03-17T20:04:17.708Z,44.86
2023-03-17T20:07:05.151Z,45.03
2023-03-17T20:09:53.587Z,45.16
2023-03-17T20:12:40.583Z,44.95
2023-03-17T20:15:29.353Z,44.94
2023-03-17T20:18:15.225Z,44.79
2023-03-17T20:21:05.759Z,44.70
2023-03-17T20:23:52.959Z,44.73
2023-03-17T20:26:41.849Z,44.67
2023-03-17T20:29:29.261Z,44.55
2023-03-17T20:32:17.353Z,44.59
2023-03-17T20:35:03.446Z,44.36
2023-03-17T20:37:51.019Z,44.31
2023-03-17T20:40:37.613Z,44.20
2023-03-17T20:43:23.495Z,44.02
2023-03-17T20:46:16.036Z,43.90
2023-03-17T20:49:07.078Z,43.89
2023-03-17T20:51:53.489Z,44.98
2023-03-17T20:54:39.152Z,45.33
2023-03-17T20:57:24.520Z,45.45
2023-03-17T21:00:17.999Z,45.60
2023-03-17T21:03:04.611Z,45.83
2023-03-17T21:05:50.442Z,45.93
2023-03-17T21:08:36.671Z,45.81
2023-03-17T21:11:26.629Z,45.71
2023-03-17T21:14:13.750Z,45.83
2023-03-17T21:16:59.255Z,45.74
2023-03-17T21:19:45.565Z,45.83
2023-03-17T21:22:32.261Z,45.96
2023-03-17T21:25:17.800Z,45.50
2023-03-17T21:28:05.092Z,45.83
2023-03-17T21:30:50.362Z,45.71
2023-03-17T21:33:35.544Z,45.34
2023-03-17T21:36:21.209Z,45.31
2023-03-17T21:39:06.561Z,45.46
2023-03-17T21:41:52.542Z,45.24
2023-03-17T21:44:38.418Z,45.66
2023-03-17T21:47:23.802Z,45.00
2023-03-17T21:50:10.221Z,45.24
2023-03-17T21:52:55.520Z,44.98
2023-03-17T21:55:41.413Z,44.80
2023-03-17T21:58:26.612Z,44.51
2023-03-17T22:01:12.168Z,44.37
2023-03-17T22:03:57.749Z,44.26
2023-03-17T22:06:43.342Z,44.21
2023-03-17T22:09:29.210Z,43.93
2023-03-17T22:12:14.728Z,43.92
2023-03-17T22:15:00.104Z,44.01
2023-03-17T22:17:45.629Z,44.09
2023-03-17T22:20:31.606Z,43.89
2023-03-17T22:23:17.029Z,43.95
2023-03-17T22:26:02.455Z,44.15
2023-03-17T22:28:49.155Z,44.32
2023-03-17T22:31:35.466Z,44.06
2023-03-17T22:34:20.658Z,44.05
2023-03-17T22:37:06.908Z,44.03
2023-03-17T22:39:52.268Z,43.97
2023-03-17T22:42:37.888Z,43.94
2023-03-17T22:45:23.745Z,43.95
2023-03-17T22:48:09.209Z,44.07
2023-03-17T22:50:54.566Z,44.15
2023-03-17T22:53:40.557Z,43.90
2023-03-17T22:56:26.861Z,44.17
2023-03-17T22:59:12.259Z,43.97
2023-03-17T23:01:57.723Z,43.94
2023-03-17T23:04:42.932Z,43.83
2023-03-17T23:07:35.636Z,43.90
2023-03-17T23:10:26.854Z,43.90
2023-03-17T23:13:12.663Z,44.04
2023-03-17T23:15:58.362Z,43.91
2023-03-17T23:18:46.652Z,44.00
2023-03-17T23:21:35.357Z,44.08
2023-03-17T23:24:21.040Z,44.10
2023-03-17T23:27:06.709Z,44.21
2023-03-17T23:29:53.110Z,44.01
2023-03-17T23:32:40.593Z,44.13
2023-03-17T23:35:26.082Z,43.92
2023-03-17T23:38:11.327Z,43.94
2023-03-17T23:40:57.548Z,44.01
2023-03-17T23:43:43.991Z,44.06
2023-03-17T23:46:29.154Z,44.05
2023-03-17T23:49:14.209Z,43.97
2023-03-17T23:51:59.538Z,43.98
2023-03-17T23:54:45.514Z,43.99
2023-03-17T23:57:33.661Z,44.03
